sensor_id;sensor_type;location;lat;lon;timestamp;P1;durP1;ratioP1;P2;durP2;ratioP2
85559;SDS011;76003;49.038;16.594;2024-03-25T00:01:22;2.42;;;2.22;;
85559;SDS011;76003;49.038;16.594;2024-03-25T00:03:48;3.03;;;2.75;;
85559;SDS011;76003;49.038;16.594;2024-03-25T00:06:13;2.95;;;2.70;;
85559;SDS011;76003;49.038;16.594;2024-03-25T00:08:39;2.55;;;2.35;;
85559;SDS011;76003;49.038;16.594;2024-03-25T00:11:05;3.05;;;2.13;;
85559;SDS011;76003;49.038;16.594;2024-03-25T00:14:46;2.25;;;1.90;;
85559;SDS011;76003;49.038;16.594;2024-03-25T00:17:27;2.63;;;2.42;;
85559;SDS011;76003;49.038;16.594;2024-03-25T00:20:08;2.17;;;1.98;;
85559;SDS011;76003;49.038;16.594;2024-03-25T00:22:35;2.50;;;2.30;;
85559;SDS011;76003;49.038;16.594;2024-03-25T00:25:21;2.80;;;2.60;;
85559;SDS011;76003;49.038;16.594;2024-03-25T00:27:47;2.45;;;2.25;;
85559;SDS011;76003;49.038;16.594;2024-03-25T00:30:33;2.00;;;1.90;;
85559;SDS011;76003;49.038;16.594;2024-03-25T00:32:59;1.80;;;1.70;;
85559;SDS011;76003;49.038;16.594;2024-03-25T00:35:46;2.97;;;1.63;;
85559;SDS011;76003;49.038;16.594;2024-03-25T00:38:26;3.17;;;2.00;;
85559;SDS011;76003;49.038;16.594;2024-03-25T00:43:48;2.78;;;1.45;;
85559;SDS011;76003;49.038;16.594;2024-03-25T00:49:09;2.00;;;1.80;;
85559;SDS011;76003;49.038;16.594;2024-03-25T00:51:50;2.58;;;2.08;;
85559;SDS011;76003;49.038;16.594;2024-03-25T00:54:31;2.53;;;2.33;;
85559;SDS011;76003;49.038;16.594;2024-03-25T00:57:11;2.70;;;2.42;;
85559;SDS011;76003;49.038;16.594;2024-03-25T00:59:38;3.03;;;2.40;;
85559;SDS011;76003;49.038;16.594;2024-03-25T01:02:25;2.80;;;2.58;;
85559;SDS011;76003;49.038;16.594;2024-03-25T01:05:52;3.55;;;3.25;;
85559;SDS011;76003;49.038;16.594;2024-03-25T01:08:18;2.58;;;1.63;;
85559;SDS011;76003;49.038;16.594;2024-03-25T01:11:05;2.60;;;2.40;;
85559;SDS011;76003;49.038;16.594;2024-03-25T01:13:32;2.55;;;2.33;;
85559;SDS011;76003;49.038;16.594;2024-03-25T01:16:18;3.03;;;2.83;;
85559;SDS011;76003;49.038;16.594;2024-03-25T01:18:58;1.88;;;1.30;;
85559;SDS011;76003;49.038;16.594;2024-03-25T01:21:39;2.53;;;2.33;;
85559;SDS011;76003;49.038;16.594;2024-03-25T01:24:19;2.92;;;2.25;;
85559;SDS011;76003;49.038;16.594;2024-03-25T01:26:45;2.65;;;2.40;;
85559;SDS011;76003;49.038;16.594;2024-03-25T01:30:27;2.33;;;1.40;;
85559;SDS011;76003;49.038;16.594;2024-03-25T01:32:54;2.35;;;2.15;;
85559;SDS011;76003;49.038;16.594;2024-03-25T01:35:20;4.35;;;1.88;;
85559;SDS011;76003;49.038;16.594;2024-03-25T01:38:07;2.30;;;2.10;;
85559;SDS011;76003;49.038;16.594;2024-03-25T01:40:47;2.47;;;1.25;;
85559;SDS011;76003;49.038;16.594;2024-03-25T01:43:13;3.35;;;2.33;;
85559;SDS011;76003;49.038;16.594;2024-03-25T01:45:59;2.03;;;1.92;;
85559;SDS011;76003;49.038;16.594;2024-03-25T01:49:25;2.70;;;2.45;;
85559;SDS011;76003;49.038;16.594;2024-03-25T01:52:51;2.90;;;2.55;;
85559;SDS011;76003;49.038;16.594;2024-03-25T01:55:24;3.42;;;3.15;;
85559;SDS011;76003;49.038;16.594;2024-03-25T01:58:13;2.63;;;2.25;;
85559;SDS011;76003;49.038;16.594;2024-03-25T02:00:54;2.70;;;2.33;;
85559;SDS011;76003;49.038;16.594;2024-03-25T02:03:36;2.67;;;2.15;;
85559;SDS011;76003;49.038;16.594;2024-03-25T02:06:17;2.25;;;2.03;;
85559;SDS011;76003;49.038;16.594;2024-03-25T02:08:44;2.05;;;1.60;;
85559;SDS011;76003;49.038;16.594;2024-03-25T02:11:31;2.08;;;1.88;;
85559;SDS011;76003;49.038;16.594;2024-03-25T02:14:12;2.50;;;2.30;;
85559;SDS011;76003;49.038;16.594;2024-03-25T02:19:34;2.30;;;2.10;;
85559;SDS011;76003;49.038;16.594;2024-03-25T02:22:17;1.63;;;1.38;;
85559;SDS011;76003;49.038;16.594;2024-03-25T02:24:45;1.60;;;1.00;;
85559;SDS011;76003;49.038;16.594;2024-03-25T02:27:32;3.33;;;2.92;;
85559;SDS011;76003;49.038;16.594;2024-03-25T02:30:09;2.72;;;2.03;;
85559;SDS011;76003;49.038;16.594;2024-03-25T02:32:58;2.15;;;2.05;;
85559;SDS011;76003;49.038;16.594;2024-03-25T02:35:39;2.85;;;2.65;;
85559;SDS011;76003;49.038;16.594;2024-03-25T02:38:22;2.17;;;1.42;;
85559;SDS011;76003;49.038;16.594;2024-03-25T02:41:03;2.25;;;2.13;;
85559;SDS011;76003;49.038;16.594;2024-03-25T02:43:29;2.95;;;2.50;;
85559;SDS011;76003;49.038;16.594;2024-03-25T02:46:16;2.13;;;1.92;;
85559;SDS011;76003;49.038;16.594;2024-03-25T02:51:37;2.28;;;1.40;;
85559;SDS011;76003;49.038;16.594;2024-03-25T02:56:59;2.70;;;1.20;;
85559;SDS011;76003;49.038;16.594;2024-03-25T02:59:26;3.03;;;2.60;;
85559;SDS011;76003;49.038;16.594;2024-03-25T03:04:52;2.33;;;1.77;;
85559;SDS011;76003;49.038;16.594;2024-03-25T03:07:39;2.17;;;1.98;;
85559;SDS011;76003;49.038;16.594;2024-03-25T03:10:05;2.58;;;2.38;;
85559;SDS011;76003;49.038;16.594;2024-03-25T03:13:47;2.67;;;2.42;;
85559;SDS011;76003;49.038;16.594;2024-03-25T03:17:12;2.75;;;1.20;;
85559;SDS011;76003;49.038;16.594;2024-03-25T03:19:38;3.13;;;2.38;;
85559;SDS011;76003;49.038;16.594;2024-03-25T03:22:24;2.45;;;1.23;;
85559;SDS011;76003;49.038;16.594;2024-03-25T03:25:50;2.28;;;2.08;;
85559;SDS011;76003;49.038;16.594;2024-03-25T03:29:16;2.20;;;2.05;;
85559;SDS011;76003;49.038;16.594;2024-03-25T03:35:07;1.85;;;1.75;;
85559;SDS011;76003;49.038;16.594;2024-03-25T03:37:53;2.13;;;1.55;;
85559;SDS011;76003;49.038;16.594;2024-03-25T03:40:19;2.95;;;1.88;;
85559;SDS011;76003;49.038;16.594;2024-03-25T03:43:22;2.13;;;1.27;;
85559;SDS011;76003;49.038;16.594;2024-03-25T03:46:03;5.05;;;1.30;;
85559;SDS011;76003;49.038;16.594;2024-03-25T03:48:43;2.97;;;2.25;;
85559;SDS011;76003;49.038;16.594;2024-03-25T03:51:24;2.35;;;1.88;;
85559;SDS011;76003;49.038;16.594;2024-03-25T03:54:04;1.80;;;1.20;;
85559;SDS011;76003;49.038;16.594;2024-03-25T03:56:30;3.70;;;2.08;;
85559;SDS011;76003;49.038;16.594;2024-03-25T03:59:16;2.35;;;1.92;;
85559;SDS011;76003;49.038;16.594;2024-03-25T04:01:57;2.58;;;2.38;;
85559;SDS011;76003;49.038;16.594;2024-03-25T04:04:37;2.20;;;1.23;;
85559;SDS011;76003;49.038;16.594;2024-03-25T04:07:18;2.47;;;2.25;;
85559;SDS011;76003;49.038;16.594;2024-03-25T04:09:52;2.10;;;1.90;;
85559;SDS011;76003;49.038;16.594;2024-03-25T04:12:41;1.83;;;1.73;;
85559;SDS011;76003;49.038;16.594;2024-03-25T04:15:07;2.05;;;1.90;;
85559;SDS011;76003;49.038;16.594;2024-03-25T04:17:54;2.72;;;1.75;;
85559;SDS011;76003;49.038;16.594;2024-03-25T04:20:40;2.10;;;1.90;;
85559;SDS011;76003;49.038;16.594;2024-03-25T04:23:22;3.45;;;2.05;;
85559;SDS011;76003;49.038;16.594;2024-03-25T04:26:03;2.15;;;1.95;;
85559;SDS011;76003;49.038;16.594;2024-03-25T04:28:46;1.73;;;1.25;;
85559;SDS011;76003;49.038;16.594;2024-03-25T04:31:13;2.05;;;1.92;;
85559;SDS011;76003;49.038;16.594;2024-03-25T04:33:59;1.70;;;1.30;;
85559;SDS011;76003;49.038;16.594;2024-03-25T04:36:40;2.42;;;2.25;;
85559;SDS011;76003;49.038;16.594;2024-03-25T04:39:21;2.53;;;2.33;;
85559;SDS011;76003;49.038;16.594;2024-03-25T04:42:02;2.38;;;2.28;;
85559;SDS011;76003;49.038;16.594;2024-03-25T04:44:36;2.25;;;2.03;;
85559;SDS011;76003;49.038;16.594;2024-03-25T04:47:23;2.10;;;1.90;;
85559;SDS011;76003;49.038;16.594;2024-03-25T04:49:49;2.00;;;1.40;;
85559;SDS011;76003;49.038;16.594;2024-03-25T04:52:35;2.00;;;1.73;;
85559;SDS011;76003;49.038;16.594;2024-03-25T04:55:16;2.40;;;2.20;;
85559;SDS011;76003;49.038;16.594;2024-03-25T04:57:57;2.03;;;1.83;;
85559;SDS011;76003;49.038;16.594;2024-03-25T05:00:37;1.50;;;1.30;;
85559;SDS011;76003;49.038;16.594;2024-03-25T05:03:18;3.53;;;2.50;;
85559;SDS011;76003;49.038;16.594;2024-03-25T05:05:54;1.83;;;1.20;;
85559;SDS011;76003;49.038;16.594;2024-03-25T05:08:40;1.88;;;1.27;;
85559;SDS011;76003;49.038;16.594;2024-03-25T05:11:21;2.83;;;2.45;;
85559;SDS011;76003;49.038;16.594;2024-03-25T05:14:02;4.75;;;2.63;;
85559;SDS011;76003;49.038;16.594;2024-03-25T05:16:46;2.08;;;1.88;;
85559;SDS011;76003;49.038;16.594;2024-03-25T05:19:18;2.30;;;2.10;;
85559;SDS011;76003;49.038;16.594;2024-03-25T05:22:21;2.17;;;1.90;;
85559;SDS011;76003;49.038;16.594;2024-03-25T05:24:47;2.10;;;1.80;;
85559;SDS011;76003;49.038;16.594;2024-03-25T05:27:33;2.15;;;1.95;;
85559;SDS011;76003;49.038;16.594;2024-03-25T05:30:14;3.15;;;2.45;;
85559;SDS011;76003;49.038;16.594;2024-03-25T05:32:54;2.65;;;2.45;;
85559;SDS011;76003;49.038;16.594;2024-03-25T05:35:35;1.92;;;1.73;;
85559;SDS011;76003;49.038;16.594;2024-03-25T05:38:17;2.53;;;1.90;;
85559;SDS011;76003;49.038;16.594;2024-03-25T05:40:44;2.60;;;2.40;;
85559;SDS011;76003;49.038;16.594;2024-03-25T05:43:31;2.25;;;1.83;;
85559;SDS011;76003;49.038;16.594;2024-03-25T05:45:57;2.58;;;1.30;;
85559;SDS011;76003;49.038;16.594;2024-03-25T05:49:41;1.50;;;1.25;;
85559;SDS011;76003;49.038;16.594;2024-03-25T05:53:18;2.38;;;2.05;;
85559;SDS011;76003;49.038;16.594;2024-03-25T05:55:44;2.35;;;2.13;;
85559;SDS011;76003;49.038;16.594;2024-03-25T05:58:32;2.30;;;2.10;;
85559;SDS011;76003;49.038;16.594;2024-03-25T06:01:03;2.50;;;2.30;;
85559;SDS011;76003;49.038;16.594;2024-03-25T06:03:54;2.38;;;2.28;;
85559;SDS011;76003;49.038;16.594;2024-03-25T06:07:31;2.20;;;2.00;;
85559;SDS011;76003;49.038;16.594;2024-03-25T06:11:06;1.90;;;1.80;;
85559;SDS011;76003;49.038;16.594;2024-03-25T06:14:37;2.40;;;2.00;;
85559;SDS011;76003;49.038;16.594;2024-03-25T06:17:09;2.00;;;1.80;;
85559;SDS011;76003;49.038;16.594;2024-03-25T06:20:13;2.50;;;2.17;;
85559;SDS011;76003;49.038;16.594;2024-03-25T06:22:46;6.78;;;2.38;;
85559;SDS011;76003;49.038;16.594;2024-03-25T06:25:56;1.83;;;1.73;;
85559;SDS011;76003;49.038;16.594;2024-03-25T06:31:54;2.03;;;1.38;;
85559;SDS011;76003;49.038;16.594;2024-03-25T06:35:00;2.60;;;2.10;;
85559;SDS011;76003;49.038;16.594;2024-03-25T06:37:42;2.20;;;2.00;;
85559;SDS011;76003;49.038;16.594;2024-03-25T06:40:23;3.53;;;2.15;;
85559;SDS011;76003;49.038;16.594;2024-03-25T06:42:49;2.40;;;2.20;;
85559;SDS011;76003;49.038;16.594;2024-03-25T06:45:36;2.25;;;1.70;;
85559;SDS011;76003;49.038;16.594;2024-03-25T06:49:02;2.67;;;2.30;;
85559;SDS011;76003;49.038;16.594;2024-03-25T06:51:54;2.65;;;2.35;;
85559;SDS011;76003;49.038;16.594;2024-03-25T06:54:21;2.22;;;1.70;;
85559;SDS011;76003;49.038;16.594;2024-03-25T06:57:01;1.88;;;1.73;;
85559;SDS011;76003;49.038;16.594;2024-03-25T06:59:27;2.90;;;1.77;;
85559;SDS011;76003;49.038;16.594;2024-03-25T07:02:01;4.38;;;3.97;;
85559;SDS011;76003;49.038;16.594;2024-03-25T07:04:27;1.73;;;1.52;;
85559;SDS011;76003;49.038;16.594;2024-03-25T07:06:52;2.35;;;2.10;;
85559;SDS011;76003;49.038;16.594;2024-03-25T07:09:19;2.55;;;2.35;;
85559;SDS011;76003;49.038;16.594;2024-03-25T07:12:23;2.40;;;2.20;;
85559;SDS011;76003;49.038;16.594;2024-03-25T07:15:49;7.63;;;3.97;;
85559;SDS011;76003;49.038;16.594;2024-03-25T07:18:19;2.40;;;2.20;;
85559;SDS011;76003;49.038;16.594;2024-03-25T07:21:05;3.05;;;2.25;;
85559;SDS011;76003;49.038;16.594;2024-03-25T07:23:33;1.67;;;1.58;;
85559;SDS011;76003;49.038;16.594;2024-03-25T07:26:20;1.73;;;1.63;;
85559;SDS011;76003;49.038;16.594;2024-03-25T07:28:45;1.85;;;1.23;;
85559;SDS011;76003;49.038;16.594;2024-03-25T07:31:11;2.17;;;1.90;;
85559;SDS011;76003;49.038;16.594;2024-03-25T07:33:36;1.95;;;1.60;;
85559;SDS011;76003;49.038;16.594;2024-03-25T07:36:17;3.20;;;2.70;;
85559;SDS011;76003;49.038;16.594;2024-03-25T07:38:59;3.33;;;2.20;;
85559;SDS011;76003;49.038;16.594;2024-03-25T07:41:25;1.50;;;1.20;;
85559;SDS011;76003;49.038;16.594;2024-03-25T07:44:23;1.60;;;0.82;;
85559;SDS011;76003;49.038;16.594;2024-03-25T07:47:05;0.90;;;0.70;;
85559;SDS011;76003;49.038;16.594;2024-03-25T07:49:45;1.25;;;0.88;;
85559;SDS011;76003;49.038;16.594;2024-03-25T07:52:12;1.23;;;1.00;;
85559;SDS011;76003;49.038;16.594;2024-03-25T07:55:00;1.52;;;1.42;;
85559;SDS011;76003;49.038;16.594;2024-03-25T07:57:40;1.05;;;0.90;;
85559;SDS011;76003;49.038;16.594;2024-03-25T08:00:06;2.55;;;1.10;;
85559;SDS011;76003;49.038;16.594;2024-03-25T08:02:55;2.55;;;1.20;;
85559;SDS011;76003;49.038;16.594;2024-03-25T08:05:42;1.52;;;1.20;;
85559;SDS011;76003;49.038;16.594;2024-03-25T08:08:22;2.13;;;1.60;;
85559;SDS011;76003;49.038;16.594;2024-03-25T08:11:04;2.55;;;1.60;;
85559;SDS011;76003;49.038;16.594;2024-03-25T08:13:44;2.50;;;1.48;;
85559;SDS011;76003;49.038;16.594;2024-03-25T08:16:11;1.80;;;1.20;;
85559;SDS011;76003;49.038;16.594;2024-03-25T08:18:57;2.17;;;1.40;;
85559;SDS011;76003;49.038;16.594;2024-03-25T08:21:38;1.98;;;1.35;;
85559;SDS011;76003;49.038;16.594;2024-03-25T08:24:19;2.25;;;1.33;;
85559;SDS011;76003;49.038;16.594;2024-03-25T08:27:00;1.77;;;1.55;;
85559;SDS011;76003;49.038;16.594;2024-03-25T08:29:41;2.65;;;1.42;;
85559;SDS011;76003;49.038;16.594;2024-03-25T08:32:22;2.40;;;1.60;;
85559;SDS011;76003;49.038;16.594;2024-03-25T08:34:48;2.80;;;1.40;;
85559;SDS011;76003;49.038;16.594;2024-03-25T08:40:00;2.55;;;1.50;;
85559;SDS011;76003;49.038;16.594;2024-03-25T08:45:31;1.98;;;1.50;;
85559;SDS011;76003;49.038;16.594;2024-03-25T08:50:54;1.80;;;1.45;;
85559;SDS011;76003;49.038;16.594;2024-03-25T08:56:21;3.40;;;2.33;;
85559;SDS011;76003;49.038;16.594;2024-03-25T08:59:02;3.25;;;1.80;;
85559;SDS011;76003;49.038;16.594;2024-03-25T09:01:43;2.63;;;1.60;;
85559;SDS011;76003;49.038;16.594;2024-03-25T09:04:24;2.25;;;1.67;;
85559;SDS011;76003;49.038;16.594;2024-03-25T09:07:05;2.75;;;1.90;;
85559;SDS011;76003;49.038;16.594;2024-03-25T09:09:32;2.97;;;1.73;;
85559;SDS011;76003;49.038;16.594;2024-03-25T09:12:38;2.70;;;1.85;;
85559;SDS011;76003;49.038;16.594;2024-03-25T09:15:09;2.53;;;1.92;;
85559;SDS011;76003;49.038;16.594;2024-03-25T09:17:58;2.80;;;2.17;;
85559;SDS011;76003;49.038;16.594;2024-03-25T09:20:38;14.73;;;9.68;;
85559;SDS011;76003;49.038;16.594;2024-03-25T09:23:20;3.08;;;2.75;;
85559;SDS011;76003;49.038;16.594;2024-03-25T09:26:04;2.40;;;2.20;;
85559;SDS011;76003;49.038;16.594;2024-03-25T09:28:47;2.75;;;2.38;;
85559;SDS011;76003;49.038;16.594;2024-03-25T09:31:28;2.42;;;1.25;;
85559;SDS011;76003;49.038;16.594;2024-03-25T09:33:58;1.45;;;1.35;;
85559;SDS011;76003;49.038;16.594;2024-03-25T09:36:46;2.55;;;2.35;;
85559;SDS011;76003;49.038;16.594;2024-03-25T09:39:28;2.13;;;1.80;;
85559;SDS011;76003;49.038;16.594;2024-03-25T09:42:18;1.25;;;0.93;;
85559;SDS011;76003;49.038;16.594;2024-03-25T09:45:18;2.20;;;1.10;;
85559;SDS011;76003;49.038;16.594;2024-03-25T09:48:10;1.05;;;0.95;;
85559;SDS011;76003;49.038;16.594;2024-03-25T09:50:53;1.30;;;1.15;;
85559;SDS011;76003;49.038;16.594;2024-03-25T09:53:49;1.05;;;0.90;;
85559;SDS011;76003;49.038;16.594;2024-03-25T09:56:22;1.60;;;1.00;;
85559;SDS011;76003;49.038;16.594;2024-03-25T09:59:28;1.67;;;0.90;;
85559;SDS011;76003;49.038;16.594;2024-03-25T10:02:39;2.00;;;0.80;;
85559;SDS011;76003;49.038;16.594;2024-03-25T10:05:27;1.98;;;1.02;;
85559;SDS011;76003;49.038;16.594;2024-03-25T10:08:14;2.10;;;1.20;;
85559;SDS011;76003;49.038;16.594;2024-03-25T10:10:46;1.77;;;1.13;;
85559;SDS011;76003;49.038;16.594;2024-03-25T10:16:13;2.28;;;1.20;;
85559;SDS011;76003;49.038;16.594;2024-03-25T10:18:53;2.40;;;2.30;;
85559;SDS011;76003;49.038;16.594;2024-03-25T10:21:35;3.30;;;2.63;;
85559;SDS011;76003;49.038;16.594;2024-03-25T10:24:17;3.45;;;3.15;;
85559;SDS011;76003;49.038;16.594;2024-03-25T10:26:58;2.03;;;1.92;;
85559;SDS011;76003;49.038;16.594;2024-03-25T10:29:39;1.90;;;1.58;;
85559;SDS011;76003;49.038;16.594;2024-03-25T10:32:20;2.00;;;1.88;;
85559;SDS011;76003;49.038;16.594;2024-03-25T10:35:05;3.58;;;3.38;;
85559;SDS011;76003;49.038;16.594;2024-03-25T10:37:39;2.75;;;2.38;;
85559;SDS011;76003;49.038;16.594;2024-03-25T10:40:29;2.05;;;1.30;;
85559;SDS011;76003;49.038;16.594;2024-03-25T10:43:06;1.73;;;1.58;;
85559;SDS011;76003;49.038;16.594;2024-03-25T10:45:55;1.58;;;1.48;;
85559;SDS011;76003;49.038;16.594;2024-03-25T10:48:31;1.73;;;1.63;;
85559;SDS011;76003;49.038;16.594;2024-03-25T10:51:23;1.95;;;1.70;;
85559;SDS011;76003;49.038;16.594;2024-03-25T10:54:06;1.40;;;1.27;;
85559;SDS011;76003;49.038;16.594;2024-03-25T10:56:48;2.40;;;1.00;;
85559;SDS011;76003;49.038;16.594;2024-03-25T10:59:31;1.63;;;1.33;;
85559;SDS011;76003;49.038;16.594;2024-03-25T11:02:14;2.42;;;2.22;;
85559;SDS011;76003;49.038;16.594;2024-03-25T11:04:56;1.17;;;1.08;;
85559;SDS011;76003;49.038;16.594;2024-03-25T11:07:54;0.80;;;0.70;;
85559;SDS011;76003;49.038;16.594;2024-03-25T11:10:34;1.38;;;0.95;;
85559;SDS011;76003;49.038;16.594;2024-03-25T11:13:11;1.65;;;0.70;;
85559;SDS011;76003;49.038;16.594;2024-03-25T11:16:09;1.90;;;1.02;;
85559;SDS011;76003;49.038;16.594;2024-03-25T11:18:41;1.45;;;0.90;;
85559;SDS011;76003;49.038;16.594;2024-03-25T11:21:37;22.70;;;14.13;;
85559;SDS011;76003;49.038;16.594;2024-03-25T11:24:06;3.10;;;2.22;;
85559;SDS011;76003;49.038;16.594;2024-03-25T11:26:53;2.10;;;1.90;;
85559;SDS011;76003;49.038;16.594;2024-03-25T11:29:34;2.50;;;2.05;;
85559;SDS011;76003;49.038;16.594;2024-03-25T11:32:16;2.10;;;1.90;;
85559;SDS011;76003;49.038;16.594;2024-03-25T11:34:57;1.70;;;1.60;;
85559;SDS011;76003;49.038;16.594;2024-03-25T11:37:41;1.48;;;1.10;;
85559;SDS011;76003;49.038;16.594;2024-03-25T11:40:23;1.67;;;1.40;;
85559;SDS011;76003;49.038;16.594;2024-03-25T11:43:05;2.72;;;1.30;;
85559;SDS011;76003;49.038;16.594;2024-03-25T11:45:48;2.85;;;1.05;;
85559;SDS011;76003;49.038;16.594;2024-03-25T11:48:29;1.10;;;1.00;;
85559;SDS011;76003;49.038;16.594;2024-03-25T11:51:16;2.50;;;1.50;;
85559;SDS011;76003;49.038;16.594;2024-03-25T11:53:43;1.45;;;1.27;;
85559;SDS011;76003;49.038;16.594;2024-03-25T11:56:31;2.05;;;1.70;;
85559;SDS011;76003;49.038;16.594;2024-03-25T11:58:59;1.50;;;1.40;;
85559;SDS011;76003;49.038;16.594;2024-03-25T12:01:46;1.75;;;1.65;;
85559;SDS011;76003;49.038;16.594;2024-03-25T12:04:16;1.70;;;1.60;;
85559;SDS011;76003;49.038;16.594;2024-03-25T12:07:04;1.60;;;1.50;;
85559;SDS011;76003;49.038;16.594;2024-03-25T12:09:45;2.72;;;1.40;;
85559;SDS011;76003;49.038;16.594;2024-03-25T12:12:44;1.50;;;1.00;;
85559;SDS011;76003;49.038;16.594;2024-03-25T12:15:25;1.85;;;1.60;;
85559;SDS011;76003;49.038;16.594;2024-03-25T12:18:07;1.27;;;0.90;;
85559;SDS011;76003;49.038;16.594;2024-03-25T12:20:48;1.77;;;1.67;;
85559;SDS011;76003;49.038;16.594;2024-03-25T12:23:35;2.70;;;2.42;;
85559;SDS011;76003;49.038;16.594;2024-03-25T12:26:16;1.95;;;1.20;;
85559;SDS011;76003;49.038;16.594;2024-03-25T12:28:57;3.60;;;1.70;;
85559;SDS011;76003;49.038;16.594;2024-03-25T12:31:38;7.78;;;3.70;;
85559;SDS011;76003;49.038;16.594;2024-03-25T12:34:13;3.00;;;2.45;;
85559;SDS011;76003;49.038;16.594;2024-03-25T12:37:03;1.90;;;1.70;;
85559;SDS011;76003;49.038;16.594;2024-03-25T12:39:32;2.10;;;1.58;;
85559;SDS011;76003;49.038;16.594;2024-03-25T12:42:20;1.95;;;1.77;;
85559;SDS011;76003;49.038;16.594;2024-03-25T12:45:01;2.05;;;1.95;;
85559;SDS011;76003;49.038;16.594;2024-03-25T12:47:30;2.38;;;1.80;;
85559;SDS011;76003;49.038;16.594;2024-03-25T12:50:17;4.13;;;3.20;;
85559;SDS011;76003;49.038;16.594;2024-03-25T12:52:59;5.53;;;5.03;;
85559;SDS011;76003;49.038;16.594;2024-03-25T12:55:39;2.70;;;2.50;;
85559;SDS011;76003;49.038;16.594;2024-03-25T12:58:20;1.58;;;1.48;;
85559;SDS011;76003;49.038;16.594;2024-03-25T13:01:01;2.38;;;2.15;;
85559;SDS011;76003;49.038;16.594;2024-03-25T13:03:41;1.23;;;1.13;;
85559;SDS011;76003;49.038;16.594;2024-03-25T13:06:22;1.90;;;1.80;;
85559;SDS011;76003;49.038;16.594;2024-03-25T13:08:59;2.03;;;1.70;;
85559;SDS011;76003;49.038;16.594;2024-03-25T13:11:45;1.98;;;1.80;;
85559;SDS011;76003;49.038;16.594;2024-03-25T13:14:19;1.20;;;1.00;;
85559;SDS011;76003;49.038;16.594;2024-03-25T13:17:05;2.08;;;1.20;;
85559;SDS011;76003;49.038;16.594;2024-03-25T13:19:46;1.38;;;1.13;;
85559;SDS011;76003;49.038;16.594;2024-03-25T13:22:13;2.25;;;2.05;;
85559;SDS011;76003;49.038;16.594;2024-03-25T13:25:00;5.55;;;2.72;;
85559;SDS011;76003;49.038;16.594;2024-03-25T13:27:41;3.95;;;3.53;;
85559;SDS011;76003;49.038;16.594;2024-03-25T13:30:21;2.38;;;1.20;;
85559;SDS011;76003;49.038;16.594;2024-03-25T13:33:05;3.50;;;2.20;;
85559;SDS011;76003;49.038;16.594;2024-03-25T13:35:45;1.98;;;1.13;;
85559;SDS011;76003;49.038;16.594;2024-03-25T13:38:27;2.13;;;1.55;;
85559;SDS011;76003;49.038;16.594;2024-03-25T13:41:08;5.75;;;1.35;;
85559;SDS011;76003;49.038;16.594;2024-03-25T13:43:44;2.22;;;1.02;;
85559;SDS011;76003;49.038;16.594;2024-03-25T13:46:30;2.80;;;2.20;;
85559;SDS011;76003;49.038;16.594;2024-03-25T13:53:28;3.58;;;2.78;;
85559;SDS011;76003;49.038;16.594;2024-03-25T13:55:54;20.50;;;14.05;;
85559;SDS011;76003;49.038;16.594;2024-03-25T13:58:40;15.55;;;10.98;;
85559;SDS011;76003;49.038;16.594;2024-03-25T14:01:06;18.70;;;13.63;;
85559;SDS011;76003;49.038;16.594;2024-03-25T14:03:55;18.70;;;14.13;;
85559;SDS011;76003;49.038;16.594;2024-03-25T14:06:35;26.08;;;16.42;;
85559;SDS011;76003;49.038;16.594;2024-03-25T14:09:22;26.92;;;16.85;;
85559;SDS011;76003;49.038;16.594;2024-03-25T14:12:05;41.63;;;23.58;;
85559;SDS011;76003;49.038;16.594;2024-03-25T14:14:46;7.60;;;5.45;;
85559;SDS011;76003;49.038;16.594;2024-03-25T14:17:26;4.82;;;3.50;;
85559;SDS011;76003;49.038;16.594;2024-03-25T14:19:53;8.52;;;5.22;;
85559;SDS011;76003;49.038;16.594;2024-03-25T14:22:41;10.73;;;7.63;;
85559;SDS011;76003;49.038;16.594;2024-03-25T14:25:22;14.98;;;9.82;;
85559;SDS011;76003;49.038;16.594;2024-03-25T14:28:03;12.93;;;8.40;;
85559;SDS011;76003;49.038;16.594;2024-03-25T14:30:37;13.98;;;8.70;;
85559;SDS011;76003;49.038;16.594;2024-03-25T14:33:23;10.70;;;8.55;;
85559;SDS011;76003;49.038;16.594;2024-03-25T14:35:49;4.53;;;4.03;;
85559;SDS011;76003;49.038;16.594;2024-03-25T14:38:35;6.30;;;4.50;;
85559;SDS011;76003;49.038;16.594;2024-03-25T14:41:18;4.55;;;3.85;;
85559;SDS011;76003;49.038;16.594;2024-03-25T14:44:00;5.78;;;4.80;;
85559;SDS011;76003;49.038;16.594;2024-03-25T14:49:21;2.72;;;2.53;;
85559;SDS011;76003;49.038;16.594;2024-03-25T14:52:02;3.97;;;3.00;;
85559;SDS011;76003;49.038;16.594;2024-03-25T14:54:44;3.60;;;3.30;;
85559;SDS011;76003;49.038;16.594;2024-03-25T14:57:10;4.43;;;2.95;;
85559;SDS011;76003;49.038;16.594;2024-03-25T14:59:56;2.78;;;1.90;;
85559;SDS011;76003;49.038;16.594;2024-03-25T15:05:17;4.63;;;2.92;;
85559;SDS011;76003;49.038;16.594;2024-03-25T15:07:44;3.40;;;2.58;;
85559;SDS011;76003;49.038;16.594;2024-03-25T15:10:33;3.00;;;2.63;;
85559;SDS011;76003;49.038;16.594;2024-03-25T15:13:00;3.72;;;3.22;;
85559;SDS011;76003;49.038;16.594;2024-03-25T15:16:42;2.20;;;1.77;;
85559;SDS011;76003;49.038;16.594;2024-03-25T15:19:07;3.67;;;1.73;;
85559;SDS011;76003;49.038;16.594;2024-03-25T15:21:54;5.00;;;1.70;;
85559;SDS011;76003;49.038;16.594;2024-03-25T15:25:19;2.25;;;2.05;;
85559;SDS011;76003;49.038;16.594;2024-03-25T15:28:45;3.70;;;2.78;;
85559;SDS011;76003;49.038;16.594;2024-03-25T15:31:52;2.05;;;1.50;;
85559;SDS011;76003;49.038;16.594;2024-03-25T15:34:19;1.83;;;1.73;;
85559;SDS011;76003;49.038;16.594;2024-03-25T15:37:22;2.92;;;2.30;;
85559;SDS011;76003;49.038;16.594;2024-03-25T15:39:48;4.35;;;2.05;;
85559;SDS011;76003;49.038;16.594;2024-03-25T15:42:14;3.03;;;2.22;;
85559;SDS011;76003;49.038;16.594;2024-03-25T15:44:41;2.95;;;1.90;;
85559;SDS011;76003;49.038;16.594;2024-03-25T15:47:43;2.00;;;1.80;;
85559;SDS011;76003;49.038;16.594;2024-03-25T15:50:10;2.45;;;2.05;;
85559;SDS011;76003;49.038;16.594;2024-03-25T15:53:51;3.15;;;1.77;;
85559;SDS011;76003;49.038;16.594;2024-03-25T15:56:17;1.90;;;1.80;;
85559;SDS011;76003;49.038;16.594;2024-03-25T15:59:20;2.17;;;2.08;;
85559;SDS011;76003;49.038;16.594;2024-03-25T16:02:46;2.47;;;2.28;;
85559;SDS011;76003;49.038;16.594;2024-03-25T16:06:14;2.10;;;1.65;;
85559;SDS011;76003;49.038;16.594;2024-03-25T16:09:39;2.95;;;1.52;;
85559;SDS011;76003;49.038;16.594;2024-03-25T16:13:05;2.13;;;1.85;;
85559;SDS011;76003;49.038;16.594;2024-03-25T16:15:32;2.97;;;2.30;;
85559;SDS011;76003;49.038;16.594;2024-03-25T16:18:35;2.88;;;2.38;;
85559;SDS011;76003;49.038;16.594;2024-03-25T16:21:17;2.15;;;1.90;;
85559;SDS011;76003;49.038;16.594;2024-03-25T16:24:06;2.58;;;1.85;;
85559;SDS011;76003;49.038;16.594;2024-03-25T16:26:35;2.45;;;2.15;;
85559;SDS011;76003;49.038;16.594;2024-03-25T16:29:38;5.00;;;2.78;;
85559;SDS011;76003;49.038;16.594;2024-03-25T16:32:04;11.13;;;5.30;;
85559;SDS011;76003;49.038;16.594;2024-03-25T16:34:50;8.05;;;4.13;;
85559;SDS011;76003;49.038;16.594;2024-03-25T16:37:16;3.08;;;2.33;;
85559;SDS011;76003;49.038;16.594;2024-03-25T16:39:42;3.13;;;2.28;;
85559;SDS011;76003;49.038;16.594;2024-03-25T16:42:08;2.70;;;1.80;;
85559;SDS011;76003;49.038;16.594;2024-03-25T16:44:34;3.88;;;2.75;;
85559;SDS011;76003;49.038;16.594;2024-03-25T16:46:59;2.80;;;2.05;;
85559;SDS011;76003;49.038;16.594;2024-03-25T16:49:25;3.10;;;2.53;;
85559;SDS011;76003;49.038;16.594;2024-03-25T16:51:51;2.88;;;2.33;;
85559;SDS011;76003;49.038;16.594;2024-03-25T16:54:37;3.03;;;2.20;;